sensor_id;sensor_type;location;lat;lon;timestamp;temperature;humidity
38020;DHT22;23829;51.350;17.286;2024-02-15T00:00:54;23.20;40.20
38020;DHT22;23829;51.350;17.286;2024-02-15T00:03:39;23.10;40.10
38020;DHT22;23829;51.350;17.286;2024-02-15T00:06:06;23.30;40.00
38020;DHT22;23829;51.350;17.286;2024-02-15T00:08:32;23.20;40.10
38020;DHT22;23829;51.350;17.286;2024-02-15T00:11:00;23.10;40.00
38020;DHT22;23829;51.350;17.286;2024-02-15T00:13:26;23.20;40.50
38020;DHT22;23829;51.350;17.286;2024-02-15T00:15:52;23.00;40.40
38020;DHT22;23829;51.350;17.286;2024-02-15T00:18:19;22.70;40.90
38020;DHT22;23829;51.350;17.286;2024-02-15T00:20:45;22.40;41.80
38020;DHT22;23829;51.350;17.286;2024-02-15T00:23:11;22.30;42.10
38020;DHT22;23829;51.350;17.286;2024-02-15T00:25:38;22.00;42.60
38020;DHT22;23829;51.350;17.286;2024-02-15T00:28:04;22.10;42.70
38020;DHT22;23829;51.350;17.286;2024-02-15T00:30:31;21.90;43.00
38020;DHT22;23829;51.350;17.286;2024-02-15T00:32:57;21.80;43.20
38020;DHT22;23829;51.350;17.286;2024-02-15T00:35:24;21.70;43.60
38020;DHT22;23829;51.350;17.286;2024-02-15T00:37:50;21.60;44.40
38020;DHT22;23829;51.350;17.286;2024-02-15T00:40:17;21.60;43.80
38020;DHT22;23829;51.350;17.286;2024-02-15T00:42:43;21.70;43.50
38020;DHT22;23829;51.350;17.286;2024-02-15T00:45:09;21.80;43.60
38020;DHT22;23829;51.350;17.286;2024-02-15T00:47:36;21.90;43.40
38020;DHT22;23829;51.350;17.286;2024-02-15T00:50:04;21.90;43.10
38020;DHT22;23829;51.350;17.286;2024-02-15T00:52:31;21.90;43.10
38020;DHT22;23829;51.350;17.286;2024-02-15T00:54:57;22.00;43.00
38020;DHT22;23829;51.350;17.286;2024-02-15T00:57:23;22.00;42.90
38020;DHT22;23829;51.350;17.286;2024-02-15T00:59:50;22.10;42.70
38020;DHT22;23829;51.350;17.286;2024-02-15T01:02:18;22.10;42.70
38020;DHT22;23829;51.350;17.286;2024-02-15T01:04:44;22.10;42.50
38020;DHT22;23829;51.350;17.286;2024-02-15T01:07:12;22.00;42.60
38020;DHT22;23829;51.350;17.286;2024-02-15T01:09:39;22.00;42.60
38020;DHT22;23829;51.350;17.286;2024-02-15T01:12:06;22.10;42.60
38020;DHT22;23829;51.350;17.286;2024-02-15T01:14:32;22.00;42.70
38020;DHT22;23829;51.350;17.286;2024-02-15T01:16:59;22.00;42.60
38020;DHT22;23829;51.350;17.286;2024-02-15T01:19:25;22.00;42.70
38020;DHT22;23829;51.350;17.286;2024-02-15T01:21:51;22.10;42.40
38020;DHT22;23829;51.350;17.286;2024-02-15T01:24:19;22.00;42.60
38020;DHT22;23829;51.350;17.286;2024-02-15T01:26:45;21.80;42.80
38020;DHT22;23829;51.350;17.286;2024-02-15T01:29:14;22.10;42.50
38020;DHT22;23829;51.350;17.286;2024-02-15T01:31:40;21.90;42.70
38020;DHT22;23829;51.350;17.286;2024-02-15T01:34:06;21.80;42.90
38020;DHT22;23829;51.350;17.286;2024-02-15T01:36:33;21.80;42.80
38020;DHT22;23829;51.350;17.286;2024-02-15T01:38:59;21.70;42.90
38020;DHT22;23829;51.350;17.286;2024-02-15T01:41:25;21.80;42.90
38020;DHT22;23829;51.350;17.286;2024-02-15T01:43:52;21.80;43.00
38020;DHT22;23829;51.350;17.286;2024-02-15T01:46:19;21.90;42.60
38020;DHT22;23829;51.350;17.286;2024-02-15T01:48:47;21.90;42.50
38020;DHT22;23829;51.350;17.286;2024-02-15T01:51:15;21.70;42.80
38020;DHT22;23829;51.350;17.286;2024-02-15T01:53:42;21.70;42.90
38020;DHT22;23829;51.350;17.286;2024-02-15T01:56:13;21.60;43.20
38020;DHT22;23829;51.350;17.286;2024-02-15T01:58:40;21.60;43.20
38020;DHT22;23829;51.350;17.286;2024-02-15T02:01:08;21.60;43.20
38020;DHT22;23829;51.350;17.286;2024-02-15T02:03:35;21.50;43.30
38020;DHT22;23829;51.350;17.286;2024-02-15T02:06:01;21.60;43.10
38020;DHT22;23829;51.350;17.286;2024-02-15T02:08:29;21.50;43.20
38020;DHT22;23829;51.350;17.286;2024-02-15T02:10:55;21.50;43.30
38020;DHT22;23829;51.350;17.286;2024-02-15T02:13:22;21.60;43.80
38020;DHT22;23829;51.350;17.286;2024-02-15T02:15:49;21.50;43.10
38020;DHT22;23829;51.350;17.286;2024-02-15T02:18:16;21.40;43.30
38020;DHT22;23829;51.350;17.286;2024-02-15T02:20:42;21.60;43.20
38020;DHT22;23829;51.350;17.286;2024-02-15T02:23:16;21.70;42.90
38020;DHT22;23829;51.350;17.286;2024-02-15T02:25:44;21.70;42.70
38020;DHT22;23829;51.350;17.286;2024-02-15T02:28:13;21.50;43.10
38020;DHT22;23829;51.350;17.286;2024-02-15T02:30:40;21.40;43.20
38020;DHT22;23829;51.350;17.286;2024-02-15T02:33:14;21.40;43.20
38020;DHT22;23829;51.350;17.286;2024-02-15T02:35:48;21.20;43.60
38020;DHT22;23829;51.350;17.286;2024-02-15T02:38:14;21.10;44.00
38020;DHT22;23829;51.350;17.286;2024-02-15T02:40:41;21.00;44.10
38020;DHT22;23829;51.350;17.286;2024-02-15T02:43:08;21.30;43.80
38020;DHT22;23829;51.350;17.286;2024-02-15T02:45:34;21.20;43.90
38020;DHT22;23829;51.350;17.286;2024-02-15T02:48:01;21.00;44.20
38020;DHT22;23829;51.350;17.286;2024-02-15T02:50:27;21.10;44.20
38020;DHT22;23829;51.350;17.286;2024-02-15T02:52:53;21.10;44.00
38020;DHT22;23829;51.350;17.286;2024-02-15T02:55:19;21.00;44.10
38020;DHT22;23829;51.350;17.286;2024-02-15T02:57:47;20.90;44.40
38020;DHT22;23829;51.350;17.286;2024-02-15T03:00:13;20.90;44.60
38020;DHT22;23829;51.350;17.286;2024-02-15T03:02:43;20.90;44.50
38020;DHT22;23829;51.350;17.286;2024-02-15T03:05:10;20.90;44.40
38020;DHT22;23829;51.350;17.286;2024-02-15T03:07:38;21.00;44.10
38020;DHT22;23829;51.350;17.286;2024-02-15T03:10:07;21.00;44.40
38020;DHT22;23829;51.350;17.286;2024-02-15T03:12:35;21.00;44.00
38020;DHT22;23829;51.350;17.286;2024-02-15T03:15:03;20.90;44.40
38020;DHT22;23829;51.350;17.286;2024-02-15T03:17:30;21.00;44.10
38020;DHT22;23829;51.350;17.286;2024-02-15T03:19:58;21.00;44.30
38020;DHT22;23829;51.350;17.286;2024-02-15T03:22:25;21.10;44.00
38020;DHT22;23829;51.350;17.286;2024-02-15T03:24:55;20.90;44.30
38020;DHT22;23829;51.350;17.286;2024-02-15T03:27:21;20.70;44.70
38020;DHT22;23829;51.350;17.286;2024-02-15T03:29:49;20.50;45.00
38020;DHT22;23829;51.350;17.286;2024-02-15T03:32:16;20.60;45.20
38020;DHT22;23829;51.350;17.286;2024-02-15T03:34:42;20.70;44.80
38020;DHT22;23829;51.350;17.286;2024-02-15T03:37:09;20.90;44.60
38020;DHT22;23829;51.350;17.286;2024-02-15T03:39:35;20.90;44.30
38020;DHT22;23829;51.350;17.286;2024-02-15T03:42:02;20.90;44.60
38020;DHT22;23829;51.350;17.286;2024-02-15T03:44:28;21.00;44.50
38020;DHT22;23829;51.350;17.286;2024-02-15T03:46:54;21.00;44.20
38020;DHT22;23829;51.350;17.286;2024-02-15T03:49:21;21.00;44.40
38020;DHT22;23829;51.350;17.286;2024-02-15T03:51:48;20.80;44.80
38020;DHT22;23829;51.350;17.286;2024-02-15T03:54:15;21.00;44.70
38020;DHT22;23829;51.350;17.286;2024-02-15T03:56:51;21.20;44.20
38020;DHT22;23829;51.350;17.286;2024-02-15T03:59:19;21.30;43.90
38020;DHT22;23829;51.350;17.286;2024-02-15T04:01:53;21.30;43.80
38020;DHT22;23829;51.350;17.286;2024-02-15T04:04:20;21.30;43.80
38020;DHT22;23829;51.350;17.286;2024-02-15T04:06:50;21.20;43.80
38020;DHT22;23829;51.350;17.286;2024-02-15T04:09:17;21.20;44.00
38020;DHT22;23829;51.350;17.286;2024-02-15T04:11:44;21.40;43.70
38020;DHT22;23829;51.350;17.286;2024-02-15T04:14:19;21.20;43.90
38020;DHT22;23829;51.350;17.286;2024-02-15T04:16:46;21.20;43.90
38020;DHT22;23829;51.350;17.286;2024-02-15T04:19:13;21.50;43.40
38020;DHT22;23829;51.350;17.286;2024-02-15T04:21:39;21.50;43.30
38020;DHT22;23829;51.350;17.286;2024-02-15T04:24:06;21.40;43.40
38020;DHT22;23829;51.350;17.286;2024-02-15T04:26:32;21.30;43.70
38020;DHT22;23829;51.350;17.286;2024-02-15T04:28:59;21.10;43.80
38020;DHT22;23829;51.350;17.286;2024-02-15T04:31:25;20.90;44.50
38020;DHT22;23829;51.350;17.286;2024-02-15T04:33:55;20.80;44.80
38020;DHT22;23829;51.350;17.286;2024-02-15T04:36:22;20.90;44.60
38020;DHT22;23829;51.350;17.286;2024-02-15T04:38:52;21.00;44.60
38020;DHT22;23829;51.350;17.286;2024-02-15T04:41:19;21.20;43.90
38020;DHT22;23829;51.350;17.286;2024-02-15T04:43:51;21.30;44.10
38020;DHT22;23829;51.350;17.286;2024-02-15T04:46:18;21.70;43.20
38020;DHT22;23829;51.350;17.286;2024-02-15T04:48:48;21.40;43.50
38020;DHT22;23829;51.350;17.286;2024-02-15T04:51:17;21.10;44.20
38020;DHT22;23829;51.350;17.286;2024-02-15T04:53:46;21.30;44.10
38020;DHT22;23829;51.350;17.286;2024-02-15T04:56:13;21.50;43.60
38020;DHT22;23829;51.350;17.286;2024-02-15T04:58:40;21.80;42.90
38020;DHT22;23829;51.350;17.286;2024-02-15T05:01:14;22.00;42.40
38020;DHT22;23829;51.350;17.286;2024-02-15T05:03:44;21.60;43.20
38020;DHT22;23829;51.350;17.286;2024-02-15T05:06:11;21.50;43.30
38020;DHT22;23829;51.350;17.286;2024-02-15T05:08:41;21.10;44.20
38020;DHT22;23829;51.350;17.286;2024-02-15T05:11:11;21.10;44.40
38020;DHT22;23829;51.350;17.286;2024-02-15T05:13:45;20.90;44.90
38020;DHT22;23829;51.350;17.286;2024-02-15T05:16:12;21.20;44.30
38020;DHT22;23829;51.350;17.286;2024-02-15T05:18:39;21.20;44.10
38020;DHT22;23829;51.350;17.286;2024-02-15T05:21:08;21.10;44.40
38020;DHT22;23829;51.350;17.286;2024-02-15T05:23:36;21.10;44.40
38020;DHT22;23829;51.350;17.286;2024-02-15T05:26:03;21.00;44.50
38020;DHT22;23829;51.350;17.286;2024-02-15T05:28:30;21.20;44.50
38020;DHT22;23829;51.350;17.286;2024-02-15T05:31:18;21.20;44.20
38020;DHT22;23829;51.350;17.286;2024-02-15T05:33:46;21.20;44.20
38020;DHT22;23829;51.350;17.286;2024-02-15T05:36:14;21.40;44.10
38020;DHT22;23829;51.350;17.286;2024-02-15T05:38:41;21.10;44.50
38020;DHT22;23829;51.350;17.286;2024-02-15T05:41:08;21.20;44.20
38020;DHT22;23829;51.350;17.286;2024-02-15T05:43:34;21.00;44.50
38020;DHT22;23829;51.350;17.286;2024-02-15T05:46:05;20.90;44.90
38020;DHT22;23829;51.350;17.286;2024-02-15T05:48:33;20.90;45.10
38020;DHT22;23829;51.350;17.286;2024-02-15T05:51:02;21.00;44.70
38020;DHT22;23829;51.350;17.286;2024-02-15T05:53:30;21.10;44.60
38020;DHT22;23829;51.350;17.286;2024-02-15T05:55:56;21.20;44.50
38020;DHT22;23829;51.350;17.286;2024-02-15T05:58:25;21.00;44.80
38020;DHT22;23829;51.350;17.286;2024-02-15T06:00:52;20.80;45.30
38020;DHT22;23829;51.350;17.286;2024-02-15T06:03:19;20.60;45.70
38020;DHT22;23829;51.350;17.286;2024-02-15T06:05:53;20.80;45.40
38020;DHT22;23829;51.350;17.286;2024-02-15T06:08:30;20.70;45.70
38020;DHT22;23829;51.350;17.286;2024-02-15T06:10:57;21.00;45.10
38020;DHT22;23829;51.350;17.286;2024-02-15T06:13:24;21.30;44.50
38020;DHT22;23829;51.350;17.286;2024-02-15T06:15:51;21.40;44.10
38020;DHT22;23829;51.350;17.286;2024-02-15T06:18:21;21.40;44.20
38020;DHT22;23829;51.350;17.286;2024-02-15T06:20:53;21.40;44.30
38020;DHT22;23829;51.350;17.286;2024-02-15T06:23:23;21.30;44.30
38020;DHT22;23829;51.350;17.286;2024-02-15T06:25:52;21.10;44.60
38020;DHT22;23829;51.350;17.286;2024-02-15T06:28:22;20.90;45.00
38020;DHT22;23829;51.350;17.286;2024-02-15T06:31:08;21.00;45.00
38020;DHT22;23829;51.350;17.286;2024-02-15T06:33:53;21.00;45.10
38020;DHT22;23829;51.350;17.286;2024-02-15T06:36:48;21.30;44.50
38020;DHT22;23829;51.350;17.286;2024-02-15T06:39:33;21.10;44.60
38020;DHT22;23829;51.350;17.286;2024-02-15T06:42:15;20.90;45.40
38020;DHT22;23829;51.350;17.286;2024-02-15T06:44:48;20.70;45.80
38020;DHT22;23829;51.350;17.286;2024-02-15T06:47:15;20.70;46.00
38020;DHT22;23829;51.350;17.286;2024-02-15T06:49:43;20.70;45.90
38020;DHT22;23829;51.350;17.286;2024-02-15T06:52:12;20.40;46.40
38020;DHT22;23829;51.350;17.286;2024-02-15T06:54:39;20.50;46.50
38020;DHT22;23829;51.350;17.286;2024-02-15T06:57:06;20.60;46.30
38020;DHT22;23829;51.350;17.286;2024-02-15T06:59:32;20.80;46.10
38020;DHT22;23829;51.350;17.286;2024-02-15T07:01:59;20.80;45.80
38020;DHT22;23829;51.350;17.286;2024-02-15T07:04:26;21.00;45.60
38020;DHT22;23829;51.350;17.286;2024-02-15T07:06:53;20.80;45.90
38020;DHT22;23829;51.350;17.286;2024-02-15T07:09:23;21.10;45.40
38020;DHT22;23829;51.350;17.286;2024-02-15T07:11:51;21.20;45.20
38020;DHT22;23829;51.350;17.286;2024-02-15T07:14:18;21.20;45.10
38020;DHT22;23829;51.350;17.286;2024-02-15T07:16:46;21.10;45.10
38020;DHT22;23829;51.350;17.286;2024-02-15T07:19:16;21.10;45.30
38020;DHT22;23829;51.350;17.286;2024-02-15T07:21:43;20.90;45.70
38020;DHT22;23829;51.350;17.286;2024-02-15T07:24:10;20.90;45.90
38020;DHT22;23829;51.350;17.286;2024-02-15T07:26:36;20.90;45.70
38020;DHT22;23829;51.350;17.286;2024-02-15T07:29:03;21.00;45.60
38020;DHT22;23829;51.350;17.286;2024-02-15T07:31:34;20.70;46.30
38020;DHT22;23829;51.350;17.286;2024-02-15T07:34:00;20.80;46.20
38020;DHT22;23829;51.350;17.286;2024-02-15T07:36:26;21.10;45.50
38020;DHT22;23829;51.350;17.286;2024-02-15T07:38:53;21.10;45.20
38020;DHT22;23829;51.350;17.286;2024-02-15T07:41:21;21.50;44.70
38020;DHT22;23829;51.350;17.286;2024-02-15T07:43:51;21.30;45.00
38020;DHT22;23829;51.350;17.286;2024-02-15T07:46:22;21.10;45.50
38020;DHT22;23829;51.350;17.286;2024-02-15T07:48:48;21.50;45.10
38020;DHT22;23829;51.350;17.286;2024-02-15T07:51:17;21.80;44.40
38020;DHT22;23829;51.350;17.286;2024-02-15T07:53:46;21.50;44.50
38020;DHT22;23829;51.350;17.286;2024-02-15T07:56:15;21.30;45.00
38020;DHT22;23829;51.350;17.286;2024-02-15T07:58:43;21.30;45.20
38020;DHT22;23829;51.350;17.286;2024-02-15T08:01:14;21.50;44.90
38020;DHT22;23829;51.350;17.286;2024-02-15T08:03:42;21.70;44.50
38020;DHT22;23829;51.350;17.286;2024-02-15T08:06:12;21.70;44.30
38020;DHT22;23829;51.350;17.286;2024-02-15T08:08:40;21.80;44.10
38020;DHT22;23829;51.350;17.286;2024-02-15T08:11:10;21.70;44.50
38020;DHT22;23829;51.350;17.286;2024-02-15T08:13:48;22.00;43.90
38020;DHT22;23829;51.350;17.286;2024-02-15T08:16:16;22.10;43.40
38020;DHT22;23829;51.350;17.286;2024-02-15T08:18:45;22.30;43.50
38020;DHT22;23829;51.350;17.286;2024-02-15T08:21:12;22.20;43.50
38020;DHT22;23829;51.350;17.286;2024-02-15T08:23:38;22.20;43.50
38020;DHT22;23829;51.350;17.286;2024-02-15T08:26:05;22.20;43.60
38020;DHT22;23829;51.350;17.286;2024-02-15T08:28:32;22.10;43.90
38020;DHT22;23829;51.350;17.286;2024-02-15T08:30:58;22.00;43.90
38020;DHT22;23829;51.350;17.286;2024-02-15T08:33:24;22.40;43.50
38020;DHT22;23829;51.350;17.286;2024-02-15T08:35:51;23.00;42.30
38020;DHT22;23829;51.350;17.286;2024-02-15T08:38:19;23.30;41.80
38020;DHT22;23829;51.350;17.286;2024-02-15T08:40:46;23.20;41.70
38020;DHT22;23829;51.350;17.286;2024-02-15T08:43:13;22.90;42.10
38020;DHT22;23829;51.350;17.286;2024-02-15T08:45:42;23.00;41.90
38020;DHT22;23829;51.350;17.286;2024-02-15T08:48:10;23.30;41.70
38020;DHT22;23829;51.350;17.286;2024-02-15T08:50:36;23.20;41.80
38020;DHT22;23829;51.350;17.286;2024-02-15T08:53:03;23.40;41.40
38020;DHT22;23829;51.350;17.286;2024-02-15T08:55:33;23.80;40.80
38020;DHT22;23829;51.350;17.286;2024-02-15T08:58:01;23.80;40.50
38020;DHT22;23829;51.350;17.286;2024-02-15T09:00:29;24.10;40.20
38020;DHT22;23829;51.350;17.286;2024-02-15T09:02:55;23.90;40.50
38020;DHT22;23829;51.350;17.286;2024-02-15T09:05:23;24.10;40.50
38020;DHT22;23829;51.350;17.286;2024-02-15T09:07:50;24.30;39.90
38020;DHT22;23829;51.350;17.286;2024-02-15T09:10:18;24.30;40.00
38020;DHT22;23829;51.350;17.286;2024-02-15T09:12:45;24.10;40.40
38020;DHT22;23829;51.350;17.286;2024-02-15T09:15:15;23.90;40.50
38020;DHT22;23829;51.350;17.286;2024-02-15T09:17:42;23.60;41.30
38020;DHT22;23829;51.350;17.286;2024-02-15T09:20:11;24.30;40.60
38020;DHT22;23829;51.350;17.286;2024-02-15T09:22:47;25.20;38.90
38020;DHT22;23829;51.350;17.286;2024-02-15T09:25:15;25.10;38.80
38020;DHT22;23829;51.350;17.286;2024-02-15T09:27:42;24.60;40.00
38020;DHT22;23829;51.350;17.286;2024-02-15T09:30:09;24.70;40.60
38020;DHT22;23829;51.350;17.286;2024-02-15T09:32:39;25.30;39.80
38020;DHT22;23829;51.350;17.286;2024-02-15T09:35:06;25.40;39.10
38020;DHT22;23829;51.350;17.286;2024-02-15T09:37:34;24.70;40.50
38020;DHT22;23829;51.350;17.286;2024-02-15T09:40:01;24.30;41.60
38020;DHT22;23829;51.350;17.286;2024-02-15T09:42:33;24.70;41.20
38020;DHT22;23829;51.350;17.286;2024-02-15T09:45:02;24.40;41.50
38020;DHT22;23829;51.350;17.286;2024-02-15T09:47:34;24.40;41.80
38020;DHT22;23829;51.350;17.286;2024-02-15T09:50:05;24.90;40.80
38020;DHT22;23829;51.350;17.286;2024-02-15T09:52:32;25.00;40.70
38020;DHT22;23829;51.350;17.286;2024-02-15T09:55:03;25.10;40.50
38020;DHT22;23829;51.350;17.286;2024-02-15T09:57:30;25.00;40.40
38020;DHT22;23829;51.350;17.286;2024-02-15T10:00:00;25.90;39.40
38020;DHT22;23829;51.350;17.286;2024-02-15T10:02:27;25.40;39.40
38020;DHT22;23829;51.350;17.286;2024-02-15T10:04:54;25.00;40.30
38020;DHT22;23829;51.350;17.286;2024-02-15T10:07:26;24.90;40.50
38020;DHT22;23829;51.350;17.286;2024-02-15T10:09:55;24.90;40.90
38020;DHT22;23829;51.350;17.286;2024-02-15T10:12:21;24.60;41.20
38020;DHT22;23829;51.350;17.286;2024-02-15T10:14:49;24.40;41.70
38020;DHT22;23829;51.350;17.286;2024-02-15T10:17:19;24.40;41.70
38020;DHT22;23829;51.350;17.286;2024-02-15T10:20:03;25.00;40.80
38020;DHT22;23829;51.350;17.286;2024-02-15T10:22:30;25.00;40.80
38020;DHT22;23829;51.350;17.286;2024-02-15T10:25:13;25.60;39.60
38020;DHT22;23829;51.350;17.286;2024-02-15T10:27:41;25.60;39.40
38020;DHT22;23829;51.350;17.286;2024-02-15T10:30:15;25.30;39.70
38020;DHT22;23829;51.350;17.286;2024-02-15T10:32:42;25.30;39.50
38020;DHT22;23829;51.350;17.286;2024-02-15T10:35:09;25.00;40.00
38020;DHT22;23829;51.350;17.286;2024-02-15T10:37:35;24.90;40.50
38020;DHT22;23829;51.350;17.286;2024-02-15T10:40:05;24.60;41.00
38020;DHT22;23829;51.350;17.286;2024-02-15T10:42:33;24.40;41.40
38020;DHT22;23829;51.350;17.286;2024-02-15T10:45:04;24.50;41.50
38020;DHT22;23829;51.350;17.286;2024-02-15T10:47:31;24.70;41.40
38020;DHT22;23829;51.350;17.286;2024-02-15T10:49:58;24.40;41.20
38020;DHT22;23829;51.350;17.286;2024-02-15T10:52:28;24.40;41.50
38020;DHT22;23829;51.350;17.286;2024-02-15T10:55:05;24.60;41.20
38020;DHT22;23829;51.350;17.286;2024-02-15T10:57:44;24.70;41.10
38020;DHT22;23829;51.350;17.286;2024-02-15T11:00:14;25.30;39.80
38020;DHT22;23829;51.350;17.286;2024-02-15T11:03:01;25.60;39.40
38020;DHT22;23829;51.350;17.286;2024-02-15T11:05:36;25.50;39.60
38020;DHT22;23829;51.350;17.286;2024-02-15T11:08:05;25.10;39.90
38020;DHT22;23829;51.350;17.286;2024-02-15T11:10:37;25.20;40.30
38020;DHT22;23829;51.350;17.286;2024-02-15T11:13:04;25.10;40.40
38020;DHT22;23829;51.350;17.286;2024-02-15T11:18:11;25.00;40.80
38020;DHT22;23829;51.350;17.286;2024-02-15T11:23:04;25.70;39.60
38020;DHT22;23829;51.350;17.286;2024-02-15T11:25:35;25.90;39.20
38020;DHT22;23829;51.350;17.286;2024-02-15T11:30:54;26.10;38.70
38020;DHT22;23829;51.350;17.286;2024-02-15T11:33:31;26.10;38.70
38020;DHT22;23829;51.350;17.286;2024-02-15T11:36:05;26.90;37.60
38020;DHT22;23829;51.350;17.286;2024-02-15T11:38:31;27.20;36.70
38020;DHT22;23829;51.350;17.286;2024-02-15T11:46:28;26.40;38.50
38020;DHT22;23829;51.350;17.286;2024-02-15T11:48:57;27.10;37.10
38020;DHT22;23829;51.350;17.286;2024-02-15T11:51:34;26.90;37.40
38020;DHT22;23829;51.350;17.286;2024-02-15T11:54:09;27.10;37.20
38020;DHT22;23829;51.350;17.286;2024-02-15T11:59:17;26.60;37.70
38020;DHT22;23829;51.350;17.286;2024-02-15T12:01:58;26.10;38.60
38020;DHT22;23829;51.350;17.286;2024-02-15T12:04:43;25.80;39.40
38020;DHT22;23829;51.350;17.286;2024-02-15T12:07:29;25.60;39.70
38020;DHT22;23829;51.350;17.286;2024-02-15T12:10:17;25.80;39.50
38020;DHT22;23829;51.350;17.286;2024-02-15T12:13:03;25.70;39.60
38020;DHT22;23829;51.350;17.286;2024-02-15T12:16:00;25.60;40.10
38020;DHT22;23829;51.350;17.286;2024-02-15T12:18:46;25.70;39.60
38020;DHT22;23829;51.350;17.286;2024-02-15T12:21:23;25.90;39.60
38020;DHT22;23829;51.350;17.286;2024-02-15T12:23:51;26.10;39.10
38020;DHT22;23829;51.350;17.286;2024-02-15T12:26:21;25.80;39.60
38020;DHT22;23829;51.350;17.286;2024-02-15T12:28:51;26.00;39.50
38020;DHT22;23829;51.350;17.286;2024-02-15T12:31:21;25.90;39.60
38020;DHT22;23829;51.350;17.286;2024-02-15T12:34:02;25.70;39.90
38020;DHT22;23829;51.350;17.286;2024-02-15T12:36:35;26.10;39.50
38020;DHT22;23829;51.350;17.286;2024-02-15T12:39:06;25.90;39.90
38020;DHT22;23829;51.350;17.286;2024-02-15T12:41:50;25.40;40.50
38020;DHT22;23829;51.350;17.286;2024-02-15T12:44:18;25.40;40.80
38020;DHT22;23829;51.350;17.286;2024-02-15T12:46:46;25.30;41.30
38020;DHT22;23829;51.350;17.286;2024-02-15T12:51:51;25.60;41.10
38020;DHT22;23829;51.350;17.286;2024-02-15T12:54:23;25.40;41.00
38020;DHT22;23829;51.350;17.286;2024-02-15T12:56:50;25.50;41.20
38020;DHT22;23829;51.350;17.286;2024-02-15T12:59:19;25.80;40.50
38020;DHT22;23829;51.350;17.286;2024-02-15T13:01:46;26.40;39.60
38020;DHT22;23829;51.350;17.286;2024-02-15T13:04:23;26.60;39.30
38020;DHT22;23829;51.350;17.286;2024-02-15T13:06:51;26.40;39.70
38020;DHT22;23829;51.350;17.286;2024-02-15T13:09:17;26.40;39.70
38020;DHT22;23829;51.350;17.286;2024-02-15T13:11:45;26.80;39.00
38020;DHT22;23829;51.350;17.286;2024-02-15T13:14:13;27.00;38.70
38020;DHT22;23829;51.350;17.286;2024-02-15T13:16:39;27.00;38.70
38020;DHT22;23829;51.350;17.286;2024-02-15T13:19:06;26.90;38.90
38020;DHT22;23829;51.350;17.286;2024-02-15T13:21:33;26.60;39.50
38020;DHT22;23829;51.350;17.286;2024-02-15T13:24:00;26.80;39.40
38020;DHT22;23829;51.350;17.286;2024-02-15T13:26:31;26.80;39.30
38020;DHT22;23829;51.350;17.286;2024-02-15T13:29:00;26.80;40.00
38020;DHT22;23829;51.350;17.286;2024-02-15T13:31:26;27.20;38.50
38020;DHT22;23829;51.350;17.286;2024-02-15T13:33:53;27.40;38.10
38020;DHT22;23829;51.350;17.286;2024-02-15T13:36:19;27.90;37.30
38020;DHT22;23829;51.350;17.286;2024-02-15T13:38:46;27.90;37.40
38020;DHT22;23829;51.350;17.286;2024-02-15T13:41:13;27.80;37.30
38020;DHT22;23829;51.350;17.286;2024-02-15T13:43:39;27.70;37.40
38020;DHT22;23829;51.350;17.286;2024-02-15T13:46:07;27.60;37.80
38020;DHT22;23829;51.350;17.286;2024-02-15T13:48:33;27.00;38.60
38020;DHT22;23829;51.350;17.286;2024-02-15T13:51:00;27.20;38.40
38020;DHT22;23829;51.350;17.286;2024-02-15T13:53:26;27.20;38.30
38020;DHT22;23829;51.350;17.286;2024-02-15T13:55:54;27.00;38.60
38020;DHT22;23829;51.350;17.286;2024-02-15T13:58:21;26.90;38.70
38020;DHT22;23829;51.350;17.286;2024-02-15T14:00:48;27.00;38.70
38020;DHT22;23829;51.350;17.286;2024-02-15T14:03:15;27.10;38.70
38020;DHT22;23829;51.350;17.286;2024-02-15T14:05:41;26.90;38.70
38020;DHT22;23829;51.350;17.286;2024-02-15T14:08:08;26.70;39.30
38020;DHT22;23829;51.350;17.286;2024-02-15T14:10:38;26.80;39.20
38020;DHT22;23829;51.350;17.286;2024-02-15T14:13:05;27.30;38.80
38020;DHT22;23829;51.350;17.286;2024-02-15T14:15:32;27.30;38.20
38020;DHT22;23829;51.350;17.286;2024-02-15T14:18:06;27.80;37.70
38020;DHT22;23829;51.350;17.286;2024-02-15T14:20:32;28.20;36.80
38020;DHT22;23829;51.350;17.286;2024-02-15T14:22:59;28.10;37.10
38020;DHT22;23829;51.350;17.286;2024-02-15T14:25:31;28.00;37.20
38020;DHT22;23829;51.350;17.286;2024-02-15T14:27:58;28.10;37.10
38020;DHT22;23829;51.350;17.286;2024-02-15T14:30:25;27.90;37.50
38020;DHT22;23829;51.350;17.286;2024-02-15T14:33:10;28.10;37.50
38020;DHT22;23829;51.350;17.286;2024-02-15T14:35:42;28.10;37.10
38020;DHT22;23829;51.350;17.286;2024-02-15T14:38:10;28.00;37.40
38020;DHT22;23829;51.350;17.286;2024-02-15T14:40:42;27.90;37.40
38020;DHT22;23829;51.350;17.286;2024-02-15T14:43:11;27.60;38.00
38020;DHT22;23829;51.350;17.286;2024-02-15T14:45:39;27.50;38.20
38020;DHT22;23829;51.350;17.286;2024-02-15T14:48:12;27.20;38.50
38020;DHT22;23829;51.350;17.286;2024-02-15T14:50:39;27.10;38.70
38020;DHT22;23829;51.350;17.286;2024-02-15T14:53:06;27.40;38.20
38020;DHT22;23829;51.350;17.286;2024-02-15T14:55:36;27.30;38.30
38020;DHT22;23829;51.350;17.286;2024-02-15T14:58:06;27.00;38.80
38020;DHT22;23829;51.350;17.286;2024-02-15T15:00:34;26.90;38.90
38020;DHT22;23829;51.350;17.286;2024-02-15T15:03:01;26.50;39.50
38020;DHT22;23829;51.350;17.286;2024-02-15T15:05:28;26.40;39.90
38020;DHT22;23829;51.350;17.286;2024-02-15T15:08:33;26.60;39.70
38020;DHT22;23829;51.350;17.286;2024-02-15T15:11:18;26.60;39.80
38020;DHT22;23829;51.350;17.286;2024-02-15T15:14:03;26.50;39.70
38020;DHT22;23829;51.350;17.286;2024-02-15T15:16:30;26.20;40.30
38020;DHT22;23829;51.350;17.286;2024-02-15T15:18:57;26.40;40.30
38020;DHT22;23829;51.350;17.286;2024-02-15T15:21:23;26.40;40.10
38020;DHT22;23829;51.350;17.286;2024-02-15T15:23:50;26.50;39.90
38020;DHT22;23829;51.350;17.286;2024-02-15T15:26:21;26.60;39.90
38020;DHT22;23829;51.350;17.286;2024-02-15T15:28:48;26.50;39.80
38020;DHT22;23829;51.350;17.286;2024-02-15T15:31:15;26.60;39.80
38020;DHT22;23829;51.350;17.286;2024-02-15T15:33:43;26.50;39.70
38020;DHT22;23829;51.350;17.286;2024-02-15T15:36:09;26.40;40.00
38020;DHT22;23829;51.350;17.286;2024-02-15T15:38:36;26.30;40.10
38020;DHT22;23829;51.350;17.286;2024-02-15T15:41:03;26.50;40.00
38020;DHT22;23829;51.350;17.286;2024-02-15T15:43:29;26.50;39.90
38020;DHT22;23829;51.350;17.286;2024-02-15T15:45:55;26.60;39.90